Terminal Aerodrome Forecast
Issued by NWS

Home | Current Version | Previous Version | Text Only | Print | Product List | Glossary On
Versions: 1 2 3 4 5 6 7 8 9 10 11 12 13 14 15 16 17 18 19 20 21 22
000
FTUS41 KILN 220700 AAB
TAFLCK
TAF AMD
KLCK 220703Z 2207/2306 27006KT P6SM VCSH SCT035 BKN040 BKN110
     FM220900 21004KT 5SM -SHRA BR SCT012 OVC035
     FM221200 22005KT P6SM VCSH OVC012
     FM221500 23007KT P6SM -SHRA VCTS OVC022CB
     FM221800 25008KT P6SM BKN035
     FM222300 25008KT P6SM VCTS BKN035CB
     FM230300 24004KT P6SM SCT040 BKN080=

USA.gov is the U.S. government's official web portal to all federal, state and local government web resources and services.